createdAt,value
2022-12-24T00:00:57.563Z,0.60
2022-12-24T00:01:57.533Z,0.70
2022-12-24T00:02:57.566Z,0.80
2022-12-24T00:03:57.446Z,0.60
2022-12-24T00:05:01.204Z,0.70
2022-12-24T00:05:57.427Z,0.70
2022-12-24T00:06:57.451Z,0.70
2022-12-24T00:07:57.399Z,0.70
2022-12-24T00:08:57.420Z,0.70
2022-12-24T00:09:57.380Z,0.70
2022-12-24T00:10:57.386Z,0.70
2022-12-24T00:11:57.374Z,0.70
2022-12-24T00:12:57.365Z,0.70
2022-12-24T00:13:57.325Z,0.90
2022-12-24T00:14:57.340Z,0.80
2022-12-24T00:15:57.327Z,0.80
2022-12-24T00:16:57.449Z,0.90
2022-12-24T00:17:57.293Z,1.20
2022-12-24T00:18:57.295Z,1.00
2022-12-24T00:19:57.262Z,0.80
2022-12-24T00:20:57.274Z,1.00
2022-12-24T00:21:57.249Z,0.90
2022-12-24T00:22:57.288Z,1.10
2022-12-24T00:23:57.218Z,0.80
2022-12-24T00:24:57.225Z,1.00
2022-12-24T00:25:57.201Z,1.10
2022-12-24T00:26:57.199Z,0.80
2022-12-24T00:27:57.189Z,0.90
2022-12-24T00:28:57.172Z,1.00
2022-12-24T00:29:57.155Z,1.20
2022-12-24T00:30:57.175Z,1.20
2022-12-24T00:31:57.133Z,1.00
2022-12-24T00:32:57.161Z,0.90
2022-12-24T00:33:57.137Z,1.10
2022-12-24T00:34:57.112Z,1.00
2022-12-24T00:35:57.079Z,1.00
2022-12-24T00:36:57.085Z,1.10
2022-12-24T00:37:57.063Z,0.90
2022-12-24T00:38:57.065Z,0.90
2022-12-24T00:39:57.047Z,0.80
2022-12-24T00:40:57.038Z,0.90
2022-12-24T00:41:57.015Z,1.00
2022-12-24T00:42:57.015Z,0.70
2022-12-24T00:43:56.986Z,0.80
2022-12-24T00:44:57.014Z,0.80
2022-12-24T00:45:57.057Z,0.80
2022-12-24T00:46:56.973Z,0.80
2022-12-24T00:47:56.942Z,0.70
2022-12-24T00:48:56.947Z,0.90
2022-12-24T00:49:56.951Z,0.80
2022-12-24T00:50:56.939Z,0.90
2022-12-24T00:51:56.900Z,0.90
2022-12-24T00:52:56.900Z,0.70
2022-12-24T00:53:56.864Z,0.80
2022-12-24T00:54:56.920Z,0.80
2022-12-24T00:55:56.850Z,0.80
2022-12-24T00:56:56.859Z,1.00
2022-12-24T00:57:56.831Z,0.80
2022-12-24T00:58:56.851Z,0.90
2022-12-24T00:59:56.825Z,0.80
2022-12-24T01:00:56.805Z,1.00
2022-12-24T01:01:56.898Z,0.80
2022-12-24T01:02:56.964Z,1.10
2022-12-24T01:03:56.778Z,0.70
2022-12-24T01:04:56.799Z,0.80
2022-12-24T01:05:56.749Z,0.80
2022-12-24T01:06:56.748Z,0.80
2022-12-24T01:07:56.714Z,0.70
2022-12-24T01:08:56.718Z,0.70
2022-12-24T01:09:56.711Z,0.90
2022-12-24T01:10:56.703Z,0.90
2022-12-24T01:11:56.668Z,0.70
2022-12-24T01:12:56.684Z,0.60
2022-12-24T01:13:56.647Z,0.80
2022-12-24T01:14:56.695Z,0.60
2022-12-24T01:15:56.652Z,0.80
2022-12-24T01:16:56.638Z,0.80
2022-12-24T01:17:56.609Z,0.70
2022-12-24T01:18:56.624Z,0.70
2022-12-24T01:19:56.602Z,0.80
2022-12-24T01:20:56.572Z,0.70
2022-12-24T01:21:56.544Z,0.80
2022-12-24T01:22:56.557Z,0.70
2022-12-24T01:23:56.526Z,0.70
2022-12-24T01:24:56.531Z,0.70
2022-12-24T01:25:56.523Z,1.00
2022-12-24T01:26:56.499Z,0.80
2022-12-24T01:27:56.474Z,0.70
2022-12-24T01:28:56.482Z,0.80
2022-12-24T01:29:56.458Z,0.60
2022-12-24T01:30:56.477Z,0.80
2022-12-24T01:31:56.468Z,0.70
2022-12-24T01:32:56.452Z,0.70
2022-12-24T01:33:56.408Z,0.80
2022-12-24T01:34:56.421Z,1.10
2022-12-24T01:35:56.398Z,1.00
2022-12-24T01:36:56.373Z,0.70
2022-12-24T01:37:56.390Z,1.20
2022-12-24T01:38:56.353Z,0.80
2022-12-24T01:39:56.348Z,0.70
2022-12-24T01:40:56.317Z,1.20
2022-12-24T01:41:56.332Z,0.90
2022-12-24T01:42:56.319Z,0.90
2022-12-24T01:43:56.310Z,0.60
2022-12-24T01:44:56.291Z,0.70
2022-12-24T01:45:56.318Z,0.70
2022-12-24T01:46:56.435Z,0.70
2022-12-24T01:47:56.287Z,0.70
2022-12-24T01:48:56.244Z,0.90
2022-12-24T01:49:56.245Z,0.80
2022-12-24T01:50:56.217Z,0.70
2022-12-24T01:51:56.220Z,0.70
2022-12-24T01:52:56.189Z,0.60
2022-12-24T01:53:56.205Z,0.80
2022-12-24T01:54:56.166Z,0.70
2022-12-24T01:55:56.178Z,0.60
2022-12-24T01:56:56.141Z,0.50
2022-12-24T01:57:56.157Z,0.70
2022-12-24T01:58:56.138Z,0.70
2022-12-24T01:59:56.124Z,0.60
2022-12-24T02:00:56.100Z,0.70
2022-12-24T02:01:56.359Z,0.80
2022-12-24T02:02:56.234Z,0.70
2022-12-24T02:03:56.180Z,0.80
2022-12-24T02:04:56.067Z,0.70
2022-12-24T02:05:56.067Z,0.70
2022-12-24T02:06:56.037Z,0.70
2022-12-24T02:07:56.055Z,0.80
2022-12-24T02:08:56.025Z,0.70
2022-12-24T02:09:56.030Z,0.60
2022-12-24T02:10:55.984Z,1.10
2022-12-24T02:11:55.985Z,0.70
2022-12-24T02:12:55.952Z,0.60
2022-12-24T02:13:55.964Z,0.70
2022-12-24T02:14:55.961Z,0.70
2022-12-24T02:15:56.012Z,0.70
2022-12-24T02:16:55.922Z,0.90
2022-12-24T02:17:55.923Z,0.70
2022-12-24T02:18:55.894Z,0.90
2022-12-24T02:19:55.901Z,0.70
2022-12-24T02:20:55.865Z,0.70
2022-12-24T02:21:55.873Z,0.60
2022-12-24T02:22:55.840Z,0.70
2022-12-24T02:23:55.860Z,0.70
2022-12-24T02:24:55.827Z,0.50
2022-12-24T02:25:55.838Z,0.70
2022-12-24T02:26:55.800Z,0.70
2022-12-24T02:27:55.796Z,0.80
2022-12-24T02:28:55.803Z,0.80
2022-12-24T02:29:55.776Z,0.70
2022-12-24T02:30:55.865Z,0.70
2022-12-24T02:31:55.760Z,0.90
2022-12-24T02:32:55.723Z,0.70
2022-12-24T02:33:55.745Z,0.70
2022-12-24T02:34:55.705Z,0.80
2022-12-24T02:35:55.780Z,0.70
2022-12-24T02:36:55.687Z,0.70
2022-12-24T02:37:55.686Z,0.70
2022-12-24T02:38:55.667Z,0.70
2022-12-24T02:39:55.669Z,0.70
2022-12-24T02:40:55.661Z,0.80
2022-12-24T02:41:55.660Z,0.90
2022-12-24T02:42:55.641Z,0.90
2022-12-24T02:43:55.637Z,0.80
2022-12-24T02:44:55.614Z,0.80
2022-12-24T02:45:59.235Z,0.70
2022-12-24T02:46:55.623Z,0.90
2022-12-24T02:47:55.578Z,0.70
2022-12-24T02:48:55.546Z,1.10
2022-12-24T02:49:55.554Z,1.00
2022-12-24T02:50:55.526Z,1.00
2022-12-24T02:51:55.527Z,0.80
2022-12-24T02:52:55.527Z,0.70
2022-12-24T02:53:55.505Z,1.10
2022-12-24T02:54:55.470Z,0.80
2022-12-24T02:55:55.476Z,0.90
2022-12-24T02:56:55.452Z,0.80
2022-12-24T02:57:55.473Z,0.80
2022-12-24T02:58:55.433Z,1.00
2022-12-24T02:59:55.436Z,1.00
2022-12-24T03:00:55.410Z,1.10
2022-12-24T03:01:55.471Z,0.90
2022-12-24T03:02:55.451Z,0.90
2022-12-24T03:03:55.391Z,1.00
2022-12-24T03:04:55.357Z,0.80
2022-12-24T03:05:55.373Z,0.80
2022-12-24T03:06:55.337Z,0.90
2022-12-24T03:07:55.345Z,0.80
2022-12-24T03:08:55.322Z,0.70
2022-12-24T03:09:55.318Z,0.80
2022-12-24T03:10:55.288Z,0.80
2022-12-24T03:11:55.300Z,0.80
2022-12-24T03:12:55.292Z,0.90
2022-12-24T03:13:55.293Z,1.00
2022-12-24T03:14:55.251Z,0.90
2022-12-24T03:15:55.282Z,0.90
2022-12-24T03:16:55.237Z,0.80
2022-12-24T03:17:55.226Z,0.70
2022-12-24T03:18:55.221Z,0.90
2022-12-24T03:19:55.241Z,0.90
2022-12-24T03:20:55.171Z,0.90
2022-12-24T03:21:55.164Z,0.80
2022-12-24T03:22:55.148Z,0.80
2022-12-24T03:23:55.148Z,0.80
2022-12-24T03:24:55.137Z,0.70
2022-12-24T03:25:55.143Z,0.60
2022-12-24T03:26:55.122Z,0.60
2022-12-24T03:27:55.117Z,0.60
2022-12-24T03:28:55.077Z,0.50
2022-12-24T03:29:55.097Z,0.70
2022-12-24T03:30:55.058Z,0.70
2022-12-24T03:31:55.132Z,0.80
2022-12-24T03:32:55.027Z,0.80
2022-12-24T03:33:55.049Z,0.80
2022-12-24T03:34:55.041Z,0.80
2022-12-24T03:35:55.019Z,0.90
2022-12-24T03:36:54.987Z,0.90
2022-12-24T03:37:54.998Z,0.70
2022-12-24T03:38:54.987Z,0.80
2022-12-24T03:39:54.977Z,0.90
2022-12-24T03:40:54.961Z,1.00
2022-12-24T03:41:54.962Z,0.80
2022-12-24T03:42:54.922Z,0.70
2022-12-24T03:43:54.925Z,0.70
2022-12-24T03:44:54.906Z,0.80
2022-12-24T03:45:54.947Z,0.80
2022-12-24T03:46:54.875Z,0.90
2022-12-24T03:47:54.880Z,0.90
2022-12-24T03:48:54.841Z,0.80
2022-12-24T03:49:54.845Z,0.80
2022-12-24T03:50:54.841Z,0.70
2022-12-24T03:51:54.826Z,0.80
2022-12-24T03:52:54.803Z,0.80
2022-12-24T03:53:54.807Z,0.80
2022-12-24T03:54:54.775Z,0.70
2022-12-24T03:55:54.802Z,0.70
2022-12-24T03:56:54.751Z,0.60
2022-12-24T03:57:54.760Z,0.80
2022-12-24T03:58:54.725Z,0.90
2022-12-24T03:59:54.735Z,0.60
2022-12-24T04:00:54.787Z,0.80
2022-12-24T04:01:54.919Z,0.80
2022-12-24T04:02:54.827Z,0.60
2022-12-24T04:03:54.683Z,0.70
2022-12-24T04:04:54.676Z,0.60
2022-12-24T04:05:54.689Z,0.70
2022-12-24T04:06:54.663Z,0.60
2022-12-24T04:07:54.654Z,0.70
2022-12-24T04:08:54.619Z,0.90
2022-12-24T04:09:54.624Z,0.80
2022-12-24T04:10:54.596Z,0.90
2022-12-24T04:11:54.594Z,0.70
2022-12-24T04:12:54.596Z,0.70
2022-12-24T04:13:54.574Z,1.00
2022-12-24T04:14:54.550Z,0.70
2022-12-24T04:15:54.567Z,0.80
2022-12-24T04:16:54.565Z,0.80
2022-12-24T04:17:54.558Z,0.60
2022-12-24T04:18:54.537Z,0.70
2022-12-24T04:19:54.505Z,0.70
2022-12-24T04:20:54.476Z,0.70
2022-12-24T04:21:54.483Z,1.00
2022-12-24T04:22:54.479Z,0.90
2022-12-24T04:23:54.474Z,0.70
2022-12-24T04:24:54.445Z,0.80
2022-12-24T04:25:54.432Z,0.90
2022-12-24T04:26:54.401Z,0.70
2022-12-24T04:27:54.436Z,0.80
2022-12-24T04:28:54.389Z,0.70
2022-12-24T04:29:54.388Z,0.70
2022-12-24T04:30:54.408Z,0.90
2022-12-24T04:31:54.431Z,1.00
2022-12-24T04:32:54.367Z,0.80
2022-12-24T04:33:54.372Z,0.70
2022-12-24T04:34:54.320Z,0.90
2022-12-24T04:35:54.326Z,0.80
2022-12-24T04:36:54.331Z,1.00
2022-12-24T04:37:54.300Z,0.80
2022-12-24T04:38:54.267Z,0.70
2022-12-24T04:39:54.285Z,0.60
2022-12-24T04:40:54.255Z,0.70
2022-12-24T04:41:54.266Z,0.60
2022-12-24T04:42:54.223Z,0.70
2022-12-24T04:43:54.229Z,0.90
2022-12-24T04:44:54.221Z,1.00
2022-12-24T04:45:54.223Z,0.70
2022-12-24T04:46:54.186Z,0.70
2022-12-24T04:47:54.179Z,0.70
2022-12-24T04:48:54.170Z,0.80
2022-12-24T04:49:54.176Z,0.60
2022-12-24T04:50:54.133Z,0.80
2022-12-24T04:51:54.137Z,0.80
2022-12-24T04:52:54.122Z,0.80
2022-12-24T04:53:54.120Z,0.70
2022-12-24T04:54:54.114Z,0.70
2022-12-24T04:55:54.108Z,0.80
2022-12-24T04:56:54.066Z,0.90
2022-12-24T04:57:54.079Z,0.80
2022-12-24T04:58:54.040Z,0.70
2022-12-24T04:59:54.048Z,0.50
2022-12-24T05:00:54.073Z,0.80
2022-12-24T05:01:54.159Z,0.60
2022-12-24T05:02:54.130Z,0.60
2022-12-24T05:03:54.008Z,0.80
2022-12-24T05:04:53.976Z,0.80
2022-12-24T05:05:59.616Z,0.70
2022-12-24T05:06:54.961Z,0.80
2022-12-24T05:07:53.965Z,0.70
2022-12-24T05:08:53.936Z,0.80
2022-12-24T05:09:53.945Z,0.70
2022-12-24T05:10:53.895Z,0.80
2022-12-24T05:11:53.917Z,0.80
2022-12-24T05:12:53.881Z,0.60
2022-12-24T05:13:53.886Z,1.00
2022-12-24T05:14:53.856Z,0.70
2022-12-24T05:15:53.857Z,0.70
2022-12-24T05:16:53.883Z,0.70
2022-12-24T05:17:53.844Z,0.70
2022-12-24T05:18:53.815Z,0.60
2022-12-24T05:19:53.826Z,0.70
2022-12-24T05:20:53.793Z,0.70
2022-12-24T05:21:53.795Z,0.70
2022-12-24T05:22:53.774Z,0.90
2022-12-24T05:23:53.799Z,0.70
2022-12-24T05:24:53.752Z,0.70
2022-12-24T05:25:53.745Z,0.80
2022-12-24T05:26:53.710Z,0.60
2022-12-24T05:27:53.747Z,0.70
2022-12-24T05:28:53.698Z,0.70
2022-12-24T05:29:53.709Z,0.70
2022-12-24T05:30:53.741Z,0.70
2022-12-24T05:31:53.677Z,0.60
2022-12-24T05:32:53.670Z,0.80
2022-12-24T05:33:53.651Z,0.60
2022-12-24T05:34:53.635Z,0.70
2022-12-24T05:35:53.635Z,0.60
2022-12-24T05:36:53.607Z,0.80
2022-12-24T05:37:53.632Z,0.70
2022-12-24T05:38:53.581Z,0.70
2022-12-24T05:39:53.579Z,0.70
2022-12-24T05:40:53.554Z,0.60
2022-12-24T05:41:53.560Z,0.70
2022-12-24T05:42:53.555Z,0.70
2022-12-24T05:43:53.568Z,0.60
2022-12-24T05:44:53.565Z,0.80
2022-12-24T05:45:53.605Z,0.60
2022-12-24T05:46:53.503Z,0.70
2022-12-24T05:47:53.503Z,0.60
2022-12-24T05:48:53.522Z,0.80
2022-12-24T05:49:53.478Z,0.70
2022-12-24T05:50:53.448Z,0.70
2022-12-24T05:51:53.441Z,0.90
2022-12-24T05:52:53.448Z,0.80
2022-12-24T05:53:53.425Z,0.80
2022-12-24T05:54:53.413Z,0.70
2022-12-24T05:55:53.388Z,0.70
2022-12-24T05:56:53.391Z,0.80
2022-12-24T05:57:53.381Z,0.70
2022-12-24T05:58:53.382Z,0.70
2022-12-24T05:59:53.345Z,0.70
2022-12-24T06:00:53.342Z,0.50
2022-12-24T06:01:53.351Z,0.70
2022-12-24T06:02:53.370Z,0.90
2022-12-24T06:03:53.325Z,0.60
2022-12-24T06:04:53.341Z,0.90
2022-12-24T06:05:53.273Z,1.00
2022-12-24T06:06:53.283Z,0.80
2022-12-24T06:07:53.263Z,0.90
2022-12-24T06:08:53.279Z,1.00
2022-12-24T06:09:53.226Z,0.90
2022-12-24T06:10:53.224Z,0.90
2022-12-24T06:11:53.204Z,0.70
2022-12-24T06:12:53.202Z,0.80
2022-12-24T06:13:53.180Z,0.70
2022-12-24T06:14:53.201Z,1.00
2022-12-24T06:15:53.198Z,0.60
2022-12-24T06:16:53.169Z,0.70
2022-12-24T06:17:53.128Z,0.80
2022-12-24T06:18:53.154Z,0.70
2022-12-24T06:19:53.107Z,0.80
2022-12-24T06:20:53.127Z,0.70
2022-12-24T06:21:53.091Z,0.90
2022-12-24T06:22:53.091Z,0.70
2022-12-24T06:23:53.075Z,1.00
2022-12-24T06:24:53.066Z,0.80
2022-12-24T06:25:53.065Z,0.80
2022-12-24T06:26:53.046Z,0.90
2022-12-24T06:27:53.013Z,1.10
2022-12-24T06:28:53.045Z,0.80
2022-12-24T06:29:53.020Z,1.00
2022-12-24T06:30:58.644Z,1.30
2022-12-24T06:31:54.029Z,0.90
2022-12-24T06:32:52.979Z,0.90
2022-12-24T06:33:52.965Z,1.00
2022-12-24T06:34:52.987Z,1.20
2022-12-24T06:35:52.953Z,0.70
2022-12-24T06:36:52.930Z,0.90
2022-12-24T06:37:52.907Z,0.90
2022-12-24T06:38:52.913Z,0.90
2022-12-24T06:39:52.909Z,0.80
2022-12-24T06:40:52.889Z,0.80
2022-12-24T06:41:52.895Z,0.80
2022-12-24T06:42:52.869Z,0.80
2022-12-24T06:43:52.858Z,0.90
2022-12-24T06:44:52.849Z,0.80
2022-12-24T06:45:52.839Z,0.90
2022-12-24T06:46:52.851Z,1.20
2022-12-24T06:47:52.789Z,0.90
2022-12-24T06:48:52.805Z,1.00
2022-12-24T06:49:52.766Z,0.90
2022-12-24T06:50:52.793Z,0.70
2022-12-24T06:51:52.736Z,0.80
2022-12-24T06:52:52.743Z,0.70
2022-12-24T06:53:52.770Z,1.00
2022-12-24T06:54:52.760Z,0.90
2022-12-24T06:55:52.726Z,0.80
2022-12-24T06:56:52.709Z,0.90
2022-12-24T06:57:52.689Z,0.90
2022-12-24T06:58:52.680Z,0.90
2022-12-24T06:59:52.672Z,0.80
2022-12-24T07:00:52.682Z,1.10
2022-12-24T07:01:52.735Z,0.90
2022-12-24T07:02:52.658Z,0.90
2022-12-24T07:03:52.679Z,0.90
2022-12-24T07:04:52.630Z,1.10
2022-12-24T07:05:52.599Z,1.00
2022-12-24T07:06:52.590Z,1.00
2022-12-24T07:07:52.567Z,1.00
2022-12-24T07:08:52.573Z,1.00
2022-12-24T07:09:52.600Z,1.00
2022-12-24T07:10:54.547Z,1.10
2022-12-24T07:11:52.519Z,1.10
2022-12-24T07:12:52.516Z,1.10
2022-12-24T07:13:52.506Z,1.00
2022-12-24T07:14:52.521Z,1.00
2022-12-24T07:15:52.655Z,0.90
2022-12-24T07:16:58.524Z,0.90
2022-12-24T07:17:53.494Z,0.80
2022-12-24T07:18:52.458Z,0.90
2022-12-24T07:19:52.435Z,1.00
2022-12-24T07:20:52.454Z,1.00
2022-12-24T07:21:52.409Z,1.20
2022-12-24T07:22:52.431Z,0.80
2022-12-24T07:23:52.402Z,0.90
2022-12-24T07:24:52.397Z,1.30
2022-12-24T07:25:52.372Z,1.40
2022-12-24T07:26:52.378Z,1.20
2022-12-24T07:27:52.346Z,1.70
2022-12-24T07:28:52.342Z,1.40
2022-12-24T07:29:52.310Z,1.30
2022-12-24T07:30:52.550Z,1.60
2022-12-24T07:31:52.353Z,1.50
2022-12-24T07:32:52.320Z,1.30
2022-12-24T07:33:52.262Z,1.50
2022-12-24T07:34:52.278Z,1.50
2022-12-24T07:35:55.801Z,1.40
2022-12-24T07:36:52.267Z,1.60
2022-12-24T07:37:52.229Z,1.40
2022-12-24T07:38:52.234Z,1.40
2022-12-24T07:39:52.199Z,1.30
2022-12-24T07:40:52.219Z,1.30
2022-12-24T07:41:52.193Z,1.00
2022-12-24T07:42:52.175Z,1.30
2022-12-24T07:43:52.161Z,1.40
2022-12-24T07:44:52.150Z,1.30
2022-12-24T07:45:52.151Z,1.30
2022-12-24T07:46:52.265Z,1.20
2022-12-24T07:47:52.109Z,1.30
2022-12-24T07:48:52.114Z,1.30
2022-12-24T07:49:52.092Z,1.20
2022-12-24T07:50:52.110Z,1.30
2022-12-24T07:51:52.066Z,1.20
2022-12-24T07:52:52.078Z,1.30
2022-12-24T07:53:52.048Z,1.40
2022-12-24T07:54:52.060Z,1.50
2022-12-24T07:55:52.030Z,1.20
2022-12-24T07:56:52.034Z,1.40
2022-12-24T07:57:52.000Z,1.40
2022-12-24T07:58:51.998Z,1.40
2022-12-24T07:59:51.979Z,1.40
2022-12-24T08:00:52.001Z,1.30
2022-12-24T08:01:52.346Z,1.40
2022-12-24T08:02:52.232Z,1.30
2022-12-24T08:03:52.070Z,1.20
2022-12-24T08:04:51.933Z,1.10
2022-12-24T08:05:51.921Z,1.20
2022-12-24T08:06:51.927Z,1.10
2022-12-24T08:07:51.892Z,1.30
2022-12-24T08:08:51.884Z,1.20
2022-12-24T08:09:51.858Z,1.20
2022-12-24T08:10:51.872Z,1.60
2022-12-24T08:11:52.622Z,1.30
2022-12-24T08:12:51.864Z,1.50
2022-12-24T08:13:51.816Z,1.60
2022-12-24T08:14:51.847Z,1.40
2022-12-24T08:15:51.834Z,1.50
2022-12-24T08:16:51.847Z,1.90
2022-12-24T08:17:51.785Z,1.80
2022-12-24T08:18:51.809Z,2.20
2022-12-24T08:19:51.749Z,2.10
2022-12-24T08:20:51.753Z,2.00
2022-12-24T08:21:51.739Z,2.40
2022-12-24T08:22:51.723Z,1.90
2022-12-24T08:23:51.711Z,2.10
2022-12-24T08:24:51.721Z,2.10
2022-12-24T08:25:51.674Z,1.90
2022-12-24T08:26:51.675Z,1.80
2022-12-24T08:27:51.658Z,1.70
2022-12-24T08:28:51.694Z,1.60
2022-12-24T08:29:51.641Z,1.80
2022-12-24T08:30:51.643Z,1.60
2022-12-24T08:31:51.668Z,1.40
2022-12-24T08:32:51.628Z,1.50
2022-12-24T08:33:51.618Z,1.60
2022-12-24T08:34:51.584Z,1.30
2022-12-24T08:35:51.581Z,1.50
2022-12-24T08:36:51.581Z,1.60
2022-12-24T08:37:51.545Z,1.40
2022-12-24T08:38:51.582Z,1.40
2022-12-24T08:39:51.531Z,1.20
2022-12-24T08:40:51.523Z,1.50
2022-12-24T08:41:51.505Z,1.30
2022-12-24T08:42:51.557Z,1.60
2022-12-24T08:43:51.492Z,1.70
2022-12-24T08:44:51.485Z,1.60
2022-12-24T08:45:51.480Z,1.70
2022-12-24T08:46:51.445Z,1.50
2022-12-24T08:47:51.443Z,1.70
2022-12-24T08:48:51.460Z,1.70
2022-12-24T08:49:51.410Z,1.90
2022-12-24T08:50:51.422Z,1.50
2022-12-24T08:51:51.413Z,1.80
2022-12-24T08:52:51.413Z,1.60
2022-12-24T08:53:51.379Z,1.60
2022-12-24T08:54:51.363Z,1.80
2022-12-24T08:55:55.934Z,1.60
2022-12-24T08:56:52.339Z,1.40
2022-12-24T08:57:51.309Z,1.40
2022-12-24T08:58:51.336Z,1.40
2022-12-24T08:59:51.313Z,1.50
2022-12-24T09:00:51.343Z,1.60
2022-12-24T09:01:51.394Z,1.70
2022-12-24T09:02:51.364Z,1.50
2022-12-24T09:03:51.290Z,1.50
2022-12-24T09:04:51.261Z,1.40
2022-12-24T09:05:51.214Z,1.60
2022-12-24T09:06:51.222Z,1.40
2022-12-24T09:07:51.219Z,1.40
2022-12-24T09:08:51.208Z,1.30
2022-12-24T09:09:51.221Z,1.30
2022-12-24T09:10:51.185Z,1.60
2022-12-24T09:11:51.158Z,1.50
2022-12-24T09:12:51.161Z,1.60
2022-12-24T09:13:51.179Z,1.30
2022-12-24T09:14:51.149Z,1.50
2022-12-24T09:15:51.135Z,1.60
2022-12-24T09:16:51.176Z,1.40
2022-12-24T09:17:51.087Z,1.50
2022-12-24T09:18:51.096Z,1.60
2022-12-24T09:19:51.102Z,1.60
2022-12-24T09:20:56.867Z,1.60
2022-12-24T09:21:52.056Z,1.40
2022-12-24T09:22:51.045Z,1.40
2022-12-24T09:23:51.023Z,1.70
2022-12-24T09:24:51.038Z,1.70
2022-12-24T09:25:51.023Z,1.40
2022-12-24T09:26:57.326Z,1.50
2022-12-24T09:27:51.998Z,1.30
2022-12-24T09:28:50.980Z,1.40
2022-12-24T09:29:50.958Z,1.40
2022-12-24T09:30:50.966Z,1.60
2022-12-24T09:31:51.058Z,1.80
2022-12-24T09:32:50.930Z,1.50
2022-12-24T09:33:50.907Z,1.30
2022-12-24T09:34:50.909Z,1.20
2022-12-24T09:35:50.902Z,1.80
2022-12-24T09:36:50.890Z,1.50
2022-12-24T09:37:50.849Z,1.50
2022-12-24T09:38:50.882Z,1.70
2022-12-24T09:39:50.843Z,1.50
2022-12-24T09:40:50.845Z,1.50
2022-12-24T09:41:50.837Z,1.60
2022-12-24T09:42:50.827Z,1.40
2022-12-24T09:43:50.790Z,1.30
2022-12-24T09:44:50.782Z,1.50
2022-12-24T09:45:50.848Z,1.50
2022-12-24T09:46:50.762Z,1.50
2022-12-24T09:47:50.760Z,1.20
2022-12-24T09:48:50.760Z,1.30
2022-12-24T09:49:50.724Z,1.20
2022-12-24T09:50:50.751Z,1.10
2022-12-24T09:51:50.703Z,1.20
2022-12-24T09:52:50.704Z,1.30
2022-12-24T09:53:50.688Z,1.20
2022-12-24T09:54:50.667Z,1.50
2022-12-24T09:55:50.671Z,1.30
2022-12-24T09:56:50.673Z,1.20
2022-12-24T09:57:50.623Z,1.20
2022-12-24T09:58:50.659Z,1.30
2022-12-24T09:59:50.621Z,1.20
2022-12-24T10:00:50.675Z,1.40
2022-12-24T10:01:50.689Z,1.30
2022-12-24T10:02:50.725Z,1.40
2022-12-24T10:03:50.645Z,1.40
2022-12-24T10:04:50.564Z,1.10
2022-12-24T10:05:50.549Z,1.40
2022-12-24T10:06:50.549Z,1.30
2022-12-24T10:07:50.533Z,1.40
2022-12-24T10:08:50.504Z,1.10
2022-12-24T10:09:50.503Z,1.30
2022-12-24T10:10:50.502Z,1.30
2022-12-24T10:11:50.514Z,1.20
2022-12-24T10:12:50.456Z,1.30
2022-12-24T10:13:50.477Z,1.30
2022-12-24T10:14:50.429Z,1.20
2022-12-24T10:15:50.446Z,1.30
2022-12-24T10:16:50.487Z,1.20
2022-12-24T10:17:50.434Z,1.20
2022-12-24T10:18:50.379Z,1.10
2022-12-24T10:19:50.400Z,1.00
2022-12-24T10:20:50.371Z,1.20
2022-12-24T10:21:50.385Z,1.20
2022-12-24T10:22:50.344Z,1.00
2022-12-24T10:23:50.352Z,1.10
2022-12-24T10:24:51.031Z,1.10
2022-12-24T10:25:50.349Z,1.40
2022-12-24T10:26:50.308Z,1.00
2022-12-24T10:27:50.293Z,1.30
2022-12-24T10:28:50.266Z,1.30
2022-12-24T10:29:50.274Z,1.30
2022-12-24T10:30:50.282Z,0.90
2022-12-24T10:31:50.243Z,0.90
2022-12-24T10:32:50.234Z,1.00
2022-12-24T10:33:50.224Z,1.00
2022-12-24T10:34:50.184Z,1.10
2022-12-24T10:35:50.199Z,1.00
2022-12-24T10:36:50.201Z,0.70
2022-12-24T10:37:50.188Z,0.70
2022-12-24T10:38:50.154Z,0.90
2022-12-24T10:39:50.154Z,1.00
2022-12-24T10:40:50.156Z,0.80
2022-12-24T10:41:50.148Z,1.00
2022-12-24T10:42:51.689Z,0.70
2022-12-24T10:43:50.109Z,0.90
2022-12-24T10:44:50.101Z,0.80
2022-12-24T10:45:50.157Z,0.80
2022-12-24T10:46:50.063Z,0.70
2022-12-24T10:47:50.072Z,0.80
2022-12-24T10:48:51.054Z,0.70
2022-12-24T10:49:50.045Z,0.70
2022-12-24T10:50:50.013Z,0.90
2022-12-24T10:51:50.028Z,0.90
2022-12-24T10:52:49.983Z,0.90
2022-12-24T10:53:50.000Z,0.80
2022-12-24T10:54:49.961Z,0.70
2022-12-24T10:55:50.027Z,0.70
2022-12-24T10:56:49.944Z,0.90
2022-12-24T10:57:49.962Z,0.80
2022-12-24T10:58:49.927Z,0.80
2022-12-24T10:59:49.939Z,0.80
2022-12-24T11:00:49.921Z,0.90
2022-12-24T11:01:50.080Z,0.70
2022-12-24T11:02:50.000Z,0.80
2022-12-24T11:03:49.994Z,0.70
2022-12-24T11:04:49.928Z,0.70
2022-12-24T11:05:49.877Z,0.90
2022-12-24T11:06:49.845Z,0.70
2022-12-24T11:07:49.847Z,0.70
2022-12-24T11:08:49.817Z,0.80
2022-12-24T11:09:49.797Z,0.70
2022-12-24T11:10:49.805Z,0.70
2022-12-24T11:11:49.824Z,0.80
2022-12-24T11:13:12.871Z,0.80
2022-12-24T11:13:50.764Z,0.70
2022-12-24T11:14:49.753Z,0.90
2022-12-24T11:15:49.845Z,0.80
2022-12-24T11:16:49.730Z,0.70
2022-12-24T11:17:49.722Z,0.70
2022-12-24T11:18:51.789Z,0.60
2022-12-24T11:19:49.691Z,0.60
2022-12-24T11:20:49.683Z,0.50
2022-12-24T11:21:49.661Z,0.70
2022-12-24T11:22:49.677Z,0.80
2022-12-24T11:23:49.662Z,0.80
2022-12-24T11:24:50.449Z,0.60
2022-12-24T11:25:49.642Z,0.50
2022-12-24T11:26:49.604Z,0.70
2022-12-24T11:27:49.614Z,0.60
2022-12-24T11:28:49.588Z,0.80
2022-12-24T11:29:49.569Z,0.70
2022-12-24T11:30:49.636Z,0.70
2022-12-24T11:31:49.569Z,0.80
2022-12-24T11:32:49.560Z,0.90
2022-12-24T11:33:49.533Z,0.90
2022-12-24T11:34:49.503Z,0.80
2022-12-24T11:35:49.551Z,0.80
2022-12-24T11:36:49.491Z,0.80
2022-12-24T11:37:49.500Z,0.80
2022-12-24T11:38:49.470Z,0.80
2022-12-24T11:39:49.452Z,0.70
2022-12-24T11:40:49.503Z,0.60
2022-12-24T11:41:49.449Z,0.80
2022-12-24T11:42:49.425Z,0.80
2022-12-24T11:43:49.459Z,0.60
2022-12-24T11:44:49.393Z,0.60
2022-12-24T11:45:49.422Z,0.70
2022-12-24T11:46:49.421Z,0.80
2022-12-24T11:47:49.375Z,0.70
2022-12-24T11:48:49.348Z,0.70
2022-12-24T11:49:49.441Z,0.60
2022-12-24T11:50:49.317Z,0.90
2022-12-24T11:51:49.340Z,0.70
2022-12-24T11:52:49.300Z,0.80
2022-12-24T11:53:49.360Z,0.70
2022-12-24T11:54:49.283Z,0.80
2022-12-24T11:55:49.273Z,0.60
2022-12-24T11:56:49.247Z,0.50
2022-12-24T11:57:49.284Z,0.80
2022-12-24T11:58:49.285Z,0.70
2022-12-24T11:59:49.298Z,0.60
2022-12-24T12:00:49.255Z,0.70
2022-12-24T12:01:49.305Z,0.90
2022-12-24T12:02:49.301Z,0.90
2022-12-24T12:03:49.325Z,0.70
2022-12-24T12:04:49.169Z,0.70
2022-12-24T12:05:49.164Z,0.80
2022-12-24T12:06:49.141Z,0.70
2022-12-24T12:07:49.137Z,0.60
2022-12-24T12:08:49.132Z,0.80
2022-12-24T12:09:49.123Z,0.70
2022-12-24T12:10:49.098Z,0.90
2022-12-24T12:11:49.086Z,0.80
2022-12-24T12:12:49.069Z,0.80
2022-12-24T12:13:49.086Z,1.10
2022-12-24T12:14:49.063Z,0.70
2022-12-24T12:15:49.072Z,0.90
2022-12-24T12:16:49.019Z,0.80
2022-12-24T12:17:49.025Z,0.70
2022-12-24T12:18:49.007Z,0.70
2022-12-24T12:19:49.001Z,0.70
2022-12-24T12:20:48.968Z,0.70
2022-12-24T12:21:48.977Z,0.80
2022-12-24T12:22:48.950Z,0.70
2022-12-24T12:23:48.963Z,0.70
2022-12-24T12:24:48.928Z,0.70
2022-12-24T12:25:48.933Z,0.50
2022-12-24T12:26:48.901Z,0.70
2022-12-24T12:27:48.912Z,0.70
2022-12-24T12:28:48.880Z,0.90
2022-12-24T12:29:48.903Z,0.70
2022-12-24T12:30:48.846Z,0.90
2022-12-24T12:31:48.890Z,0.60
2022-12-24T12:32:48.895Z,0.90
2022-12-24T12:33:48.837Z,0.80
2022-12-24T12:34:48.820Z,1.00
2022-12-24T12:35:48.828Z,0.70
2022-12-24T12:36:48.789Z,0.80
2022-12-24T12:37:48.797Z,0.80
2022-12-24T12:38:48.798Z,0.80
2022-12-24T12:39:48.756Z,0.70
2022-12-24T12:40:48.756Z,0.60
2022-12-24T12:41:48.755Z,0.70
2022-12-24T12:42:48.717Z,0.80
2022-12-24T12:43:48.713Z,0.70
2022-12-24T12:44:48.700Z,0.80
2022-12-24T12:45:48.706Z,0.60
2022-12-24T12:46:48.693Z,0.80
2022-12-24T12:47:48.676Z,0.70
2022-12-24T12:48:48.642Z,0.60
2022-12-24T12:49:48.656Z,0.80
2022-12-24T12:50:48.641Z,0.70
2022-12-24T12:51:48.624Z,1.00
2022-12-24T12:52:48.636Z,0.80
2022-12-24T12:53:48.604Z,0.70
2022-12-24T12:54:48.593Z,0.70
2022-12-24T12:55:48.582Z,0.70
2022-12-24T12:56:48.604Z,0.60
2022-12-24T12:57:48.563Z,0.60
2022-12-24T12:58:48.550Z,0.70
2022-12-24T12:59:48.544Z,0.70
2022-12-24T13:00:48.593Z,0.80
2022-12-24T13:01:48.659Z,0.80
2022-12-24T13:02:48.625Z,1.10
2022-12-24T13:03:48.510Z,0.70
2022-12-24T13:04:48.465Z,0.80
2022-12-24T13:05:48.474Z,0.80
2022-12-24T13:06:48.435Z,0.80
2022-12-24T13:07:48.463Z,0.70
2022-12-24T13:08:48.441Z,0.70
2022-12-24T13:09:48.437Z,0.80
2022-12-24T13:10:48.391Z,1.00
2022-12-24T13:11:48.395Z,0.80
2022-12-24T13:12:48.375Z,0.70
2022-12-24T13:13:48.379Z,0.70
2022-12-24T13:14:48.364Z,0.80
2022-12-24T13:15:48.377Z,0.70
2022-12-24T13:16:48.383Z,0.90
2022-12-24T13:17:48.368Z,0.90
2022-12-24T13:18:48.296Z,0.70